Time;durP1;ratioP1;P1;durP2;ratioP2;P2;SDS_P1;SDS_P2;PMS_P1;PMS_P2;Temp;Humidity;BMP_temperature;BMP_pressure;BME280_temperature;BME280_humidity;BME280_pressure;Samples;Min_cycle;Max_cycle;Signal;HPM_P1;HPM_P2
2023/08/25 00:04:04;;;;;;;14.10;8.80;;;;;;;20.44;67.08;98889.50;223693;181;137369;-59
2023/08/25 00:09:09;;;;;;;15.90;8.80;;;;;;;20.46;66.84;98900.42;223546;182;146380;-60
2023/08/25 00:14:12;;;;;;;15.00;8.80;;;;;;;20.48;66.99;98893.21;223698;181;138968;-60
2023/08/25 00:19:17;;;;;;;16.10;8.60;;;;;;;20.44;67.06;98888.23;223697;181;137931;-62
2023/08/25 00:24:20;;;;;;;13.40;9.40;;;;;;;20.40;67.34;98894.98;223623;182;145954;-59
2023/08/25 00:29:24;;;;;;;17.20;9.00;;;;;;;20.34;67.31;98892.87;223009;182;140164;-61
2023/08/25 00:34:28;;;;;;;15.70;9.50;;;;;;;20.27;67.55;98882.90;223662;182;136835;-61
2023/08/25 00:39:31;;;;;;;13.20;8.80;;;;;;;20.21;67.78;98873.68;223533;182;147145;-60
2023/08/25 00:44:34;;;;;;;21.00;9.00;;;;;;;20.15;68.05;98876.31;223669;182;141221;-62
2023/08/25 00:49:38;;;;;;;18.10;9.20;;;;;;;20.13;68.14;98869.14;223549;182;137707;-63
2023/08/25 00:54:43;;;;;;;19.70;9.30;;;;;;;20.15;68.08;98865.91;223725;182;145981;-62
2023/08/25 00:59:49;;;;;;;19.60;9.40;;;;;;;20.15;67.89;98863.52;223512;182;138768;-61
2023/08/25 01:04:53;;;;;;;;;;;;;;;20.11;67.78;98853.09;223705;182;139075;-61
2023/08/25 01:09:56;;;;;;;15.10;8.80;;;;;;;20.03;67.62;98853.92;223605;181;145636;-62
2023/08/25 01:15:07;;;;;;;15.90;8.60;;;;;;;19.97;67.65;98853.55;223671;182;138591;-63
2023/08/25 01:20:13;;;;;;;12.00;7.60;;;;;;;19.89;67.65;98846.44;223653;182;138183;-62
2023/08/25 01:25:26;;;;;;;12.90;7.30;;;;;;;19.79;67.68;98839.15;223716;182;145871;-61
2023/08/25 01:30:35;;;;;;;17.00;8.20;;;;;;;19.69;67.72;98832.06;223751;182;140469;-61
2023/08/25 01:36:42;;;;;;;14.40;7.30;;;;;;;19.62;67.91;98827.93;221398;193;668319;-60
2023/08/25 01:42:02;;;;;;;12.60;7.40;;;;;;;19.56;68.03;98826.91;223162;186;137340;-59
2023/08/25 01:47:07;;;;;;;15.80;7.10;;;;;;;19.57;67.96;98828.27;222988;187;143987;-60
2023/08/25 01:52:12;;;;;;;16.40;8.00;;;;;;;19.52;67.91;98824.77;222973;187;139511;-61
2023/08/25 01:57:16;;;;;;;15.40;7.60;;;;;;;19.48;67.88;98825.58;222942;187;136785;-60
2023/08/25 02:02:21;;;;;;;13.50;7.20;;;;;;;19.45;67.93;98822.48;223229;186;146119;-61
2023/08/25 02:07:25;;;;;;;16.30;8.10;;;;;;;19.36;68.13;98819.23;223248;185;138750;-60
2023/08/25 02:12:28;;;;;;;16.90;7.90;;;;;;;19.30;68.34;98827.22;223521;184;136623;-60
2023/08/25 02:17:31;;;;;;;12.90;8.10;;;;;;;19.25;68.44;98821.98;223443;184;144521;-60
2023/08/25 02:22:36;;;;;;;14.20;7.10;;;;;;;19.18;68.65;98819.13;223339;185;139205;-62
2023/08/25 02:27:39;;;;;;;11.50;7.30;;;;;;;19.15;68.92;98811.30;223251;184;137178;-61
2023/08/25 02:32:43;;;;;;;11.80;7.20;;;;;;;19.17;69.15;98809.36;223156;184;145865;-63
2023/08/25 02:38:04;;;;;;;12.90;7.80;;;;;;;19.19;69.11;98800.48;223726;182;139693;-63
2023/08/25 02:43:08;;;;;;;10.60;7.50;;;;;;;19.19;69.15;98784.50;223823;181;136441;-61
2023/08/25 02:48:11;;;;;;;14.00;7.70;;;;;;;19.15;69.18;98777.11;223725;181;146862;-63
2023/08/25 02:53:14;;;;;;;13.80;7.60;;;;;;;19.11;69.34;98766.95;223666;181;139316;-61
2023/08/25 02:58:17;;;;;;;16.20;8.10;;;;;;;19.08;69.48;98758.98;223616;182;138236;-62
2023/08/25 03:03:20;;;;;;;12.60;7.50;;;;;;;19.06;69.18;98769.22;223700;181;145458;-60
2023/08/25 03:08:24;;;;;;;12.90;7.40;;;;;;;19.04;69.28;98774.95;223568;181;139560;-61
2023/08/25 03:13:27;;;;;;;14.00;7.60;;;;;;;19.05;69.43;98772.39;223696;181;137978;-62
2023/08/25 03:18:31;;;;;;;10.40;7.00;;;;;;;19.07;69.26;98770.96;223577;181;146017;-62
2023/08/25 03:23:35;;;;;;;12.60;7.60;;;;;;;19.08;68.98;98766.84;223639;181;140239;-60
2023/08/25 03:28:39;;;;;;;19.30;7.80;;;;;;;19.05;68.94;98762.33;223590;182;137671;-61
2023/08/25 03:33:42;;;;;;;27.90;8.00;;;;;;;19.00;69.00;98766.96;223661;182;146384;-62
2023/08/25 03:38:45;;;;;;;20.20;9.40;;;;;;;18.98;69.22;98773.89;223631;181;138828;-62
2023/08/25 03:43:48;;;;;;;31.90;9.00;;;;;;;18.93;69.21;98778.87;223674;181;136774;-61
2023/08/25 03:48:51;;;;;;;22.60;8.60;;;;;;;18.87;69.37;98786.10;223771;182;145487;-61
2023/08/25 03:53:54;;;;;;;20.30;7.90;;;;;;;18.81;69.40;98786.55;223624;182;139885;-63
2023/08/25 03:58:57;;;;;;;25.20;8.50;;;;;;;18.77;69.53;98779.86;223679;182;138353;-62
2023/08/25 04:04:02;;;;;;;21.30;8.90;;;;;;;18.80;69.69;98785.92;223559;181;145830;-60
2023/08/25 04:09:05;;;;;;;37.90;11.20;;;;;;;18.83;69.66;98788.12;223623;181;139082;-60
2023/08/25 04:14:09;;;;;;;31.60;9.90;;;;;;;18.85;69.59;98779.23;223652;182;137012;-61
2023/08/25 04:19:16;;;;;;;25.40;8.70;;;;;;;18.88;69.67;98766.18;223724;182;145868;-62
2023/08/25 04:24:21;;;;;;;33.50;9.30;;;;;;;18.89;69.61;98771.70;223637;182;138659;-61
2023/08/25 04:29:25;;;;;;;21.60;8.70;;;;;;;18.88;69.73;98783.79;223663;182;137101;-60
2023/08/25 04:34:28;;;;;;;24.40;8.20;;;;;;;18.89;69.69;98788.21;223615;182;145678;-61
2023/08/25 04:39:31;;;;;;;26.50;7.70;;;;;;;18.90;69.97;98771.44;223575;182;138518;-59
2023/08/25 04:44:35;;;;;;;19.70;7.30;;;;;;;18.96;69.94;98760.80;223585;181;139704;-61
2023/08/25 04:49:39;;;;;;;18.80;8.90;;;;;;;19.08;69.81;98757.20;223653;182;146687;-63
2023/08/25 04:54:42;;;;;;;24.20;11.00;;;;;;;19.19;69.53;98764.33;223676;182;139560;-61
2023/08/25 04:59:45;;;;;;;29.20;16.50;;;;;;;19.28;69.41;98768.06;223674;182;137679;-65
2023/08/25 05:04:49;;;;;;;19.90;12.70;;;;;;;19.34;69.23;98756.11;223652;182;145859;-61
2023/08/25 05:09:53;;;;;;;19.10;8.50;;;;;;;19.44;69.28;98745.10;223651;181;140203;-60
2023/08/25 05:14:57;;;;;;;12.50;7.50;;;;;;;19.54;68.61;98736.80;223544;181;136541;-60
2023/08/25 05:20:02;;;;;;;19.70;8.00;;;;;;;19.60;68.31;98731.98;223607;181;146566;-59
2023/08/25 05:25:06;;;;;;;13.30;8.00;;;;;;;19.66;68.48;98732.39;223578;181;141527;-61
2023/08/25 05:30:12;;;;;;;13.80;6.90;;;;;;;19.72;68.70;98736.06;223582;182;136685;-61
2023/08/25 05:35:17;;;;;;;34.00;9.20;;;;;;;19.84;68.80;98735.61;223580;182;148001;-62
2023/08/25 05:40:23;;;;;;;39.20;10.90;;;;;;;20.00;68.58;98720.59;223612;181;139506;-62
2023/08/25 05:45:27;;;;;;;71.10;11.70;;;;;;;20.19;68.25;98714.98;223660;182;137059;-58
2023/08/25 05:50:30;;;;;;;55.20;11.40;;;;;;;20.32;67.99;98724.38;223664;182;145826;-62
2023/08/25 05:55:33;;;;;;;53.10;10.30;;;;;;;20.46;68.02;98718.25;223670;181;139841;-59
2023/08/25 06:00:36;;;;;;;47.50;11.30;;;;;;;20.58;67.92;98699.34;223655;183;138641;-62
2023/08/25 06:05:39;;;;;;;61.10;10.40;;;;;;;20.69;67.99;98688.56;223733;182;146004;-61
2023/08/25 06:10:43;;;;;;;39.00;9.30;;;;;;;20.78;67.73;98692.91;223676;181;139004;-63
2023/08/25 06:15:46;;;;;;;31.20;8.30;;;;;;;20.84;67.54;98686.35;223625;181;138469;-64
2023/08/25 06:20:50;;;;;;;32.40;9.00;;;;;;;20.90;67.82;98677.36;223654;181;146045;-58
2023/08/25 06:25:54;;;;;;;39.00;9.20;;;;;;;21.01;68.00;98668.05;223679;181;140414;-64
2023/08/25 06:30:57;;;;;;;26.40;8.20;;;;;;;21.17;68.23;98662.61;223645;181;138837;-60
2023/08/25 06:36:00;;;;;;;14.80;8.10;;;;;;;21.34;67.98;98668.34;223709;182;146666;-60
2023/08/25 06:41:04;;;;;;;17.00;6.90;;;;;;;21.45;67.36;98668.54;223578;182;139412;-62
2023/08/25 06:46:08;;;;;;;21.00;8.20;;;;;;;21.63;67.26;98654.01;223598;182;139299;-59
2023/08/25 06:51:11;;;;;;;29.40;11.30;;;;;;;21.90;66.88;98644.27;223678;181;146327;-61
2023/08/25 06:56:14;;;;;;;37.70;11.90;;;;;;;22.05;65.85;98655.18;223523;181;140570;-60
2023/08/25 07:01:18;;;;;;;37.70;12.80;;;;;;;22.23;64.83;98648.09;223670;181;137888;-61
2023/08/25 07:06:21;;;;;;;41.10;12.50;;;;;;;22.41;64.41;98648.09;223656;181;145991;-60
2023/08/25 07:11:26;;;;;;;33.50;11.00;;;;;;;22.58;63.88;98631.09;223690;182;138905;-59
2023/08/25 07:16:29;;;;;;;37.50;10.80;;;;;;;22.66;63.49;98625.05;223594;181;139367;-59
2023/08/25 07:21:32;;;;;;;37.50;10.30;;;;;;;22.71;63.53;98620.46;223687;181;145405;-58
2023/08/25 07:26:35;;;;;;;25.60;10.50;;;;;;;22.83;63.39;98619.59;223599;181;140749;-61
2023/08/25 07:31:39;;;;;;;30.90;8.60;;;;;;;22.95;63.56;98617.08;223607;182;137759;-59
2023/08/25 07:36:43;;;;;;;35.60;8.70;;;;;;;23.14;63.41;98612.83;223633;182;145902;-58
2023/08/25 09:45:36;;;;;;;15.00;6.60;;;;;;;26.05;56.27;98621.00;221946;193;667041;-62
2023/08/25 09:50:42;;;;;;;17.00;6.60;;;;;;;26.18;55.28;98619.78;223176;186;136951;-63
2023/08/25 09:55:46;;;;;;;15.10;6.10;;;;;;;26.34;54.89;98613.23;223360;185;144615;-63
2023/08/25 10:00:49;;;;;;;16.60;6.30;;;;;;;26.52;54.15;98600.98;223357;185;138821;-63
2023/08/25 10:05:53;;;;;;;13.70;5.90;;;;;;;26.73;53.85;98601.46;223262;185;136614;-62
2023/08/25 10:10:57;;;;;;;12.00;5.50;;;;;;;27.00;53.23;98593.59;223257;185;144015;-58
2023/08/25 10:16:03;;;;;;;8.20;5.50;;;;;;;27.22;52.19;98592.80;223746;182;140484;-60
2023/08/25 10:21:07;;;;;;;14.70;5.90;;;;;;;27.46;52.20;98590.71;223748;181;137149;-61
2023/08/25 10:26:10;;;;;;;10.30;6.30;;;;;;;27.69;51.61;98583.45;223722;182;144445;-58
2023/08/25 10:31:14;;;;;;;13.70;7.00;;;;;;;27.87;50.98;98572.86;223680;182;139088;-61
2023/08/25 10:36:20;;;;;;;8.30;6.30;;;;;;;28.04;50.77;98563.06;223576;181;136561;-61
2023/08/25 10:41:23;;;;;;;9.80;6.70;;;;;;;28.23;49.76;98558.23;223601;182;146404;-61
2023/08/25 10:46:27;;;;;;;17.60;7.10;;;;;;;28.40;49.60;98550.01;223625;182;139493;-60
2023/08/25 10:52:07;;;;;;;10.00;6.80;;;;;;;28.59;49.24;98550.11;223557;182;138222;-60
2023/08/25 10:57:29;;;;;;;10.40;7.40;;;;;;;28.73;48.99;98552.82;223620;182;145628;-62
2023/08/25 11:02:42;;;;;;;14.10;7.60;;;;;;;28.88;49.08;98545.44;223594;182;138973;-60
2023/08/25 11:07:45;;;;;;;10.40;7.50;;;;;;;29.02;49.25;98548.77;223650;182;137459;-59
2023/08/25 11:12:52;;;;;;;13.40;7.20;;;;;;;29.11;49.21;98557.60;223545;182;145867;-59
2023/08/25 11:18:13;;;;;;;8.90;7.30;;;;;;;29.14;48.88;98567.05;223532;183;139843;-60
2023/08/25 11:23:16;;;;;;;10.00;7.40;;;;;;;29.26;48.76;98560.65;223645;183;137220;-61
2023/08/25 11:28:25;;;;;;;12.90;6.90;;;;;;;29.49;49.01;98551.62;223543;182;145927;-61
2023/08/25 11:33:30;;;;;;;13.10;7.00;;;;;;;29.65;48.42;98547.17;223557;182;138998;-60
2023/08/25 11:38:34;;;;;;;11.10;7.00;;;;;;;29.79;47.84;98539.35;223534;182;137300;-60
2023/08/25 11:43:38;;;;;;;7.30;6.30;;;;;;;29.96;47.45;98545.15;223541;182;145837;-61
2023/08/25 11:48:41;;;;;;;11.70;7.30;;;;;;;30.14;47.17;98544.33;223550;182;139006;-60
2023/08/25 11:53:45;;;;;;;12.30;7.30;;;;;;;30.31;46.82;98540.08;223642;182;137479;-60
2023/08/25 11:58:50;;;;;;;14.50;7.40;;;;;;;30.56;46.34;98537.08;223629;182;145845;-60
2023/08/25 12:03:57;;;;;;;11.50;7.70;;;;;;;30.71;45.84;98535.70;223626;182;139769;-60
2023/08/25 12:09:01;;;;;;;9.10;7.60;;;;;;;30.89;46.51;98535.38;223691;182;139002;-61
2023/08/25 12:14:04;;;;;;;10.20;7.10;;;;;;;31.12;45.23;98546.28;223725;182;146557;-61
2023/08/25 12:19:07;;;;;;;18.30;7.50;;;;;;;31.30;44.69;98547.48;223624;182;276194;-60
2023/08/25 12:24:11;;;;;;;8.80;6.90;;;;;;;31.42;44.32;98539.98;223601;181;137353;-61
2023/08/25 12:29:15;;;;;;;9.40;7.30;;;;;;;31.56;44.02;98532.87;223254;182;145708;-60
2023/08/25 12:34:18;;;;;;;10.70;7.30;;;;;;;31.81;43.85;98534.65;223559;182;138673;-58
2023/08/25 12:39:22;;;;;;;10.20;7.20;;;;;;;32.03;43.98;98530.30;223663;182;137993;-61
2023/08/25 12:44:25;;;;;;;9.30;7.10;;;;;;;32.15;42.64;98525.73;223605;182;145431;-62
2023/08/25 12:54:30;;;;;;;11.40;7.10;;;;;;;32.41;42.18;98521.52;221147;193;668308;-65
2023/08/25 12:59:33;;;;;;;14.60;7.20;;;;;;;32.56;41.69;98516.88;222960;187;138980;-61
2023/08/25 13:04:37;;;;;;;14.90;7.20;;;;;;;32.65;40.48;98520.89;222954;187;144063;-60
2023/08/25 13:09:40;;;;;;;8.20;6.50;;;;;;;32.71;40.34;98523.70;222989;187;138616;-61
2023/08/25 13:14:43;;;;;;;8.40;6.70;;;;;;;32.82;40.26;98522.23;223120;186;136735;-61
2023/08/25 13:19:47;;;;;;;10.10;6.90;;;;;;;33.04;40.40;98513.61;223090;186;144578;-60
2023/08/25 13:24:50;;;;;;;14.80;6.80;;;;;;;33.24;39.65;98508.06;223464;184;139270;-60
2023/08/25 13:29:53;;;;;;;10.00;6.40;;;;;;;33.25;39.28;98498.31;223335;184;136787;-60
2023/08/25 13:34:56;;;;;;;9.40;6.80;;;;;;;33.41;39.01;98494.43;223310;184;143723;-60
2023/08/25 13:40:00;;;;;;;9.00;6.00;;;;;;;33.49;38.44;98502.06;223155;184;139386;-61
2023/08/25 13:45:04;;;;;;;;;;;;;;;33.47;38.42;98498.33;223460;184;137360;-62
2023/08/25 13:50:08;;;;;;;10.30;7.40;;;;;;;33.52;38.67;98493.92;223556;184;146474;-62
2023/08/25 13:55:11;;;;;;;9.90;6.30;;;;;;;33.60;38.14;98496.00;223505;184;138760;-59
2023/08/25 14:00:16;;;;;;;11.80;6.30;;;;;;;33.60;37.50;98502.46;223449;183;136823;-61
2023/08/25 14:05:20;;;;;;;9.90;6.20;;;;;;;33.65;37.70;98500.65;223459;184;145968;-61
2023/08/25 14:10:25;;;;;;;10.60;6.00;;;;;;;33.82;38.05;98503.20;223287;185;139949;-60
2023/08/25 14:15:28;;;;;;;7.60;5.90;;;;;;;33.91;37.53;98503.60;223381;183;136833;-60
2023/08/25 14:20:31;;;;;;;10.10;6.50;;;;;;;33.78;37.32;98502.22;223537;184;146353;-60
2023/08/25 14:25:34;;;;;;;11.10;5.70;;;;;;;33.56;37.79;98498.23;223678;181;139011;-60
2023/08/25 14:30:38;;;;;;;8.70;6.30;;;;;;;33.37;38.16;98488.64;223623;181;137083;-62
2023/08/25 14:35:41;;;;;;;11.70;7.00;;;;;;;33.15;38.15;98487.42;223701;181;146176;-65
2023/08/25 14:40:48;;;;;;;12.40;5.90;;;;;;;32.84;38.87;98491.65;223316;181;139583;-61
2023/08/25 14:45:51;;;;;;;11.50;6.70;;;;;;;32.55;39.53;98486.05;223719;181;137464;-59
2023/08/25 14:50:59;;;;;;;9.80;6.90;;;;;;;32.31;40.21;98489.99;223736;181;145984;-60
2023/08/25 14:56:02;;;;;;;8.70;6.60;;;;;;;32.07;40.85;98501.03;223702;181;139549;-59
2023/08/25 15:01:06;;;;;;;9.10;6.30;;;;;;;31.85;41.30;98497.62;223709;181;136705;-59
2023/08/25 15:06:10;;;;;;;8.90;6.70;;;;;;;31.69;41.82;98494.56;223746;181;145993;-58
2023/08/25 15:11:13;;;;;;;8.40;6.70;;;;;;;31.55;42.37;98497.98;223754;181;138875;-59
2023/08/25 15:16:16;;;;;;;11.50;6.50;;;;;;;31.42;42.61;98506.29;223660;181;137777;-60
2023/08/25 15:21:20;;;;;;;9.60;5.90;;;;;;;31.31;42.68;98505.38;223687;181;147338;-60
2023/08/25 15:26:23;;;;;;;8.90;6.40;;;;;;;31.21;43.14;98509.17;223662;181;139156;-61
2023/08/25 15:31:26;;;;;;;10.00;6.60;;;;;;;31.15;43.52;98512.65;223728;181;137123;-60
2023/08/25 15:36:29;;;;;;;11.50;6.40;;;;;;;31.11;43.94;98515.92;223697;181;145906;-60
2023/08/25 15:41:35;;;;;;;13.50;5.80;;;;;;;31.05;44.28;98521.55;223730;181;139439;-59
2023/08/25 15:46:39;;;;;;;10.30;6.30;;;;;;;30.92;44.39;98520.65;223712;182;137977;-61
2023/08/25 15:51:43;;;;;;;21.40;6.20;;;;;;;30.81;44.76;98518.64;223613;181;146371;-60
2023/08/25 16:27:11;;;;;;;6.40;2.80;;;;;;;30.52;42.83;98513.91;221809;193;666965;-60
2023/08/25 16:32:15;;;;;;;5.30;2.80;;;;;;;30.43;42.87;98520.88;223044;187;137565;-61
2023/08/25 16:37:18;;;;;;;7.40;3.30;;;;;;;30.38;42.79;98521.03;222874;187;144054;-62
2023/08/25 16:42:21;;;;;;;7.80;2.90;;;;;;;30.32;42.89;98525.10;222966;187;139717;-62
2023/08/25 16:47:25;;;;;;;7.10;2.90;;;;;;;30.26;43.04;98523.84;222927;188;138573;-60
2023/08/25 16:52:28;;;;;;;5.60;3.10;;;;;;;30.22;43.12;98525.52;223258;184;143956;-61
2023/08/25 16:57:32;;;;;;;6.40;3.20;;;;;;;30.13;43.11;98528.66;223300;185;140353;-59
2023/08/25 17:02:35;;;;;;;8.10;3.00;;;;;;;30.04;43.27;98529.93;223598;181;137265;-61
2023/08/25 17:07:47;;;;;;;6.00;2.90;;;;;;;29.96;43.49;98529.99;223721;182;145475;-62
2023/08/25 17:12:52;;;;;;;7.70;3.00;;;;;;;29.89;43.82;98529.89;223663;182;139840;-63
2023/08/25 17:17:56;;;;;;;5.40;3.20;;;;;;;29.85;43.94;98530.29;223686;182;136528;-59
2023/08/25 17:22:59;;;;;;;7.60;3.50;;;;;;;29.80;44.24;98535.26;223601;182;147892;-60
2023/08/25 17:28:03;;;;;;;8.00;3.90;;;;;;;29.73;44.85;98534.95;223721;182;138986;-61
2023/08/25 17:33:07;;;;;;;7.30;3.30;;;;;;;29.61;45.31;98544.94;223569;182;137881;-63
2023/08/25 17:38:10;;;;;;;8.00;3.80;;;;;;;29.52;45.71;98540.80;223639;182;146976;-61
2023/08/25 17:43:13;;;;;;;7.30;3.90;;;;;;;29.38;46.70;98538.98;223607;182;138760;-59
2023/08/25 17:48:16;;;;;;;11.80;4.20;;;;;;;29.23;47.38;98541.69;223566;183;137407;-62
2023/08/25 17:53:20;;;;;;;8.20;3.40;;;;;;;29.13;47.47;98531.02;223484;182;145707;-62
2023/08/25 17:58:23;;;;;;;13.90;3.90;;;;;;;29.04;47.76;98530.97;223505;182;138695;-60
2023/08/25 18:03:26;;;;;;;11.40;4.60;;;;;;;28.92;48.54;98526.51;223569;182;138658;-60
2023/08/25 18:08:32;;;;;;;10.50;4.00;;;;;;;28.79;48.86;98526.43;223666;182;145783;-59
2023/08/25 18:13:36;;;;;;;14.60;4.20;;;;;;;28.79;49.11;98528.88;223712;182;139229;-59
2023/08/25 18:18:40;;;;;;;7.90;4.40;;;;;;;28.79;49.31;98530.15;223626;182;140706;-61
2023/08/25 18:23:43;;;;;;;9.70;5.00;;;;;;;28.79;49.51;98533.67;223573;182;145577;-61
2023/08/25 18:28:49;;;;;;;13.40;4.80;;;;;;;28.81;49.74;98533.73;223446;182;138950;-60
2023/08/25 18:33:52;;;;;;;8.90;5.10;;;;;;;28.80;50.01;98541.67;223587;182;137432;-61
2023/08/25 18:38:55;;;;;;;9.20;5.20;;;;;;;28.75;50.06;98545.17;223573;182;146281;-61
2023/08/25 18:43:58;;;;;;;8.00;4.90;;;;;;;28.74;50.24;98550.98;223611;182;140654;-60
2023/08/25 18:49:03;;;;;;;10.10;5.60;;;;;;;28.69;50.47;98556.61;223648;181;137104;-61
2023/08/25 18:54:07;;;;;;;11.90;6.20;;;;;;;28.63;50.64;98554.30;223680;182;148452;-60
2023/08/25 18:59:10;;;;;;;11.20;5.40;;;;;;;28.61;51.05;98551.88;223663;181;138879;-58
2023/08/25 19:04:13;;;;;;;10.20;5.90;;;;;;;28.58;51.27;98546.08;223631;182;137785;-60
2023/08/25 19:09:16;;;;;;;10.00;5.70;;;;;;;28.52;51.30;98542.55;223620;182;145803;-62
2023/08/25 19:14:19;;;;;;;13.50;6.30;;;;;;;28.44;51.66;98548.52;223622;182;140277;-60
2023/08/25 19:19:23;;;;;;;8.80;5.70;;;;;;;28.40;51.70;98546.55;223689;182;137475;-61
2023/08/25 19:24:26;;;;;;;10.80;5.80;;;;;;;28.30;52.13;98553.05;223580;181;147381;-58
2023/08/25 19:29:29;;;;;;;8.80;5.70;;;;;;;28.22;52.29;98560.72;223668;181;140269;-60
2023/08/25 19:34:33;;;;;;;9.90;5.80;;;;;;;28.14;52.69;98556.90;223682;182;137928;-62
2023/08/25 19:39:36;;;;;;;9.00;5.80;;;;;;;27.99;53.31;98560.41;223614;181;147081;-63
2023/08/25 19:44:39;;;;;;;10.70;6.00;;;;;;;27.83;54.05;98561.91;223695;182;138795;-64
2023/08/25 19:49:42;;;;;;;8.00;5.70;;;;;;;27.69;54.56;98567.85;223809;182;136758;-64
2023/08/25 19:54:45;;;;;;;11.40;6.10;;;;;;;27.52;55.26;98565.59;223578;181;145620;-62
2023/08/25 19:59:48;;;;;;;15.80;6.70;;;;;;;27.35;55.61;98567.58;223645;182;139882;-61
2023/08/25 20:04:52;;;;;;;8.80;6.20;;;;;;;27.23;55.79;98559.45;223600;183;137938;-61
2023/08/25 20:09:55;;;;;;;13.80;6.80;;;;;;;27.13;56.18;98566.02;223712;182;145562;-64
2023/08/25 20:14:59;;;;;;;14.80;7.20;;;;;;;27.00;56.49;98559.61;223607;182;138650;-63
2023/08/25 20:20:03;;;;;;;8.80;6.50;;;;;;;26.88;57.20;98560.71;223760;183;137741;-62
2023/08/25 20:25:08;;;;;;;10.90;5.90;;;;;;;26.84;57.28;98562.44;223655;182;146340;-62
2023/08/25 20:30:11;;;;;;;;;;;;;;;26.87;56.67;98573.80;223694;182;138730;-62
2023/08/25 20:35:14;;;;;;;11.80;7.40;;;;;;;26.86;57.42;98570.36;223708;182;130375;-63
2023/08/25 20:40:18;;;;;;;9.70;6.70;;;;;;;26.74;58.06;98576.17;223734;182;147600;-60
2023/08/25 20:45:21;;;;;;;10.50;6.60;;;;;;;26.69;58.41;98575.80;223641;182;139012;-60
2023/08/25 20:50:24;;;;;;;10.80;6.50;;;;;;;26.66;58.73;98572.23;223743;182;138035;-64
2023/08/25 20:55:28;;;;;;;14.60;7.00;;;;;;;26.60;59.05;98573.23;223793;182;145908;-63
2023/08/25 21:00:31;;;;;;;12.60;7.80;;;;;;;26.49;59.39;98573.52;223691;182;140578;-61
2023/08/25 21:05:35;;;;;;;23.20;8.00;;;;;;;26.38;60.02;98577.30;223651;182;137567;-62
2023/08/25 21:10:38;;;;;;;16.50;8.00;;;;;;;26.27;60.49;98587.07;223765;182;147268;-62
2023/08/25 21:17:28;;;;;;;19.20;8.10;;;;;;;26.14;60.97;98587.21;222186;190;666641;-61
2023/08/25 21:22:31;;;;;;;17.30;8.90;;;;;;;26.01;61.61;98588.09;223091;187;137426;-63
2023/08/25 21:27:34;;;;;;;15.30;7.40;;;;;;;25.96;61.78;98584.64;223498;183;144116;-64
2023/08/25 21:32:38;;;;;;;13.30;7.80;;;;;;;25.91;62.20;98585.25;223452;183;140915;-62
2023/08/25 21:37:41;;;;;;;12.30;7.50;;;;;;;25.86;62.27;98594.34;223618;183;136242;-61
2023/08/25 21:42:44;;;;;;;13.30;7.70;;;;;;;25.78;62.40;98601.50;223266;184;143559;-62
2023/08/25 21:47:47;;;;;;;15.90;7.80;;;;;;;25.71;62.67;98598.61;223431;184;138793;-63
2023/08/25 21:52:51;;;;;;;17.00;7.30;;;;;;;25.66;62.98;98593.81;222101;184;137022;-60
2023/08/25 21:57:55;;;;;;;15.50;7.50;;;;;;;25.58;63.37;98590.16;223576;184;147330;-63
2023/08/25 22:02:58;;;;;;;13.00;6.50;;;;;;;25.52;63.55;98582.96;223492;184;138969;-62
2023/08/25 22:08:03;;;;;;;19.10;7.30;;;;;;;25.45;63.80;98587.46;223479;184;137903;-61
2023/08/25 22:13:07;;;;;;;14.50;8.00;;;;;;;25.41;64.12;98583.67;223478;181;147947;-61
2023/08/25 22:18:10;;;;;;;13.30;8.00;;;;;;;25.41;64.18;98587.11;223355;183;139389;-62
2023/08/25 22:23:14;;;;;;;12.10;7.00;;;;;;;25.44;64.32;98594.91;223576;183;136866;-62
2023/08/25 22:28:17;;;;;;;9.20;6.40;;;;;;;25.48;64.01;98602.20;223377;183;145631;-61
2023/08/25 22:33:20;;;;;;;9.30;6.00;;;;;;;25.65;62.71;98603.54;223530;183;139003;-64
2023/08/25 22:38:26;;;;;;;14.10;7.00;;;;;;;25.82;62.28;98600.31;223361;183;137739;-62
2023/08/25 22:43:30;;;;;;;12.40;6.20;;;;;;;25.85;62.55;98600.39;223441;184;146172;-62
2023/08/25 22:48:33;;;;;;;8.50;5.80;;;;;;;25.91;61.27;98606.73;222618;183;138921;-61
2023/08/25 22:53:36;;;;;;;8.90;6.00;;;;;;;25.99;60.67;98612.38;223471;183;139171;-63
2023/08/25 22:58:39;;;;;;;9.60;6.00;;;;;;;26.05;60.20;98617.15;223589;183;145513;-64
2023/08/25 23:03:43;;;;;;;14.70;6.80;;;;;;;26.11;59.80;98606.96;223503;184;139088;-60
2023/08/25 23:08:46;;;;;;;10.00;5.50;;;;;;;26.15;59.53;98601.65;223429;183;137192;-62
2023/08/25 23:13:49;;;;;;;7.70;5.50;;;;;;;26.17;59.31;98595.20;223782;182;146034;-62
2023/08/25 23:18:53;;;;;;;10.00;6.20;;;;;;;26.17;59.18;98587.88;223706;182;140122;-64
2023/08/25 23:23:56;;;;;;;7.10;5.60;;;;;;;26.17;58.96;98578.48;223634;182;137565;-62
2023/08/25 23:28:59;;;;;;;9.60;5.60;;;;;;;26.16;58.98;98575.30;223704;182;147055;-63
2023/08/25 23:34:02;;;;;;;10.30;5.90;;;;;;;26.17;59.22;98574.41;223550;181;139073;-64
2023/08/25 23:39:05;;;;;;;9.60;5.20;;;;;;;26.16;59.24;98562.42;223732;181;139496;-63
2023/08/25 23:44:08;;;;;;;13.80;6.10;;;;;;;26.08;61.03;98550.02;223727;181;146405;-64
2023/08/25 23:49:13;;;;;;;8.30;5.80;;;;;;;25.91;62.63;98536.42;223653;181;139046;-63
2023/08/25 23:54:16;;;;;;;10.10;6.10;;;;;;;25.74;63.91;98531.73;223663;181;137211;-61
2023/08/25 23:59:20;;;;;;;9.70;6.30;;;;;;;25.59;65.15;98523.13;223675;182;145652;-63
